Time;durP1;ratioP1;P1;durP2;ratioP2;P2;SDS_P1;SDS_P2;PMS_P1;PMS_P2;Temp;Humidity;BMP_temperature;BMP_pressure;BME280_temperature;BME280_humidity;BME280_pressure;Samples;Min_cycle;Max_cycle;Signal;HPM_P1;HPM_P2
2023/07/17 00:00:15;;;;;;;2.40;1.70;;;;;;;25.01;100.00;100490.56;5000287;28;20845;-75
2023/07/17 00:02:41;;;;;;;3.40;1.80;;;;;;;25.34;100.00;100557.56;5004256;28;20042;-80
2023/07/17 00:05:07;;;;;;;3.33;1.65;;;;;;;24.80;100.00;100472.09;5005029;28;20038;-75
2023/07/17 00:07:32;;;;;;;2.55;1.45;;;;;;;25.24;100.00;100559.09;5005576;28;20087;-77
2023/07/17 00:09:58;;;;;;;3.20;1.77;;;;;;;24.85;100.00;100498.66;5005770;28;20502;-75
2023/07/17 00:12:24;;;;;;;7.50;3.38;;;;;;;25.20;100.00;100562.91;5004973;28;20052;-79
2023/07/17 00:14:49;;;;;;;3.08;1.10;;;;;;;25.24;100.00;100580.56;4999246;28;20042;-76
2023/07/17 00:17:15;;;;;;;7.18;1.95;;;;;;;25.28;100.00;100582.09;5004039;28;20034;-77
2023/07/17 00:19:41;;;;;;;4.03;1.95;;;;;;;25.22;100.00;100580.66;5006202;28;20041;-79
2023/07/17 00:22:07;;;;;;;1.90;1.30;;;;;;;24.53;100.00;100477.22;5009072;28;20053;-79
2023/07/17 00:24:33;;;;;;;3.33;1.48;;;;;;;24.69;100.00;100525.50;5010031;28;20125;-78
2023/07/17 00:26:58;;;;;;;2.72;1.65;;;;;;;24.88;100.00;100564.72;4991067;28;20058;-77
2023/07/17 00:29:28;;;;;;;3.20;1.85;;;;;;;24.51;100.00;100497.88;5009591;28;20042;-77
2023/07/17 00:31:54;;;;;;;2.45;1.23;;;;;;;24.91;100.00;100567.22;5009458;28;20513;-78
2023/07/17 00:34:20;;;;;;;3.83;1.55;;;;;;;24.89;100.00;100564.66;5009374;28;20625;-76
2023/07/17 00:36:46;;;;;;;3.53;1.73;;;;;;;24.81;100.00;100558.84;5008870;28;20073;-79
2023/07/17 00:39:13;;;;;;;1.90;1.25;;;;;;;24.63;100.00;100561.63;5010093;28;20153;-79
2023/07/17 00:41:38;;;;;;;3.95;1.70;;;;;;;24.60;100.00;100552.84;5013360;28;20048;-78
2023/07/17 00:44:04;;;;;;;3.05;1.80;;;;;;;24.77;100.00;100573.38;5009291;28;20041;-76
2023/07/17 00:46:32;;;;;;;3.85;1.80;;;;;;;24.57;100.00;100543.16;5009145;28;20529;-77
2023/07/17 00:48:57;;;;;;;3.40;1.75;;;;;;;24.42;100.00;100557.44;5011071;28;20089;-73
2023/07/17 00:51:23;;;;;;;4.57;2.38;;;;;;;24.18;100.00;100573.03;5010703;28;20486;-73
2023/07/17 00:53:49;;;;;;;3.50;2.58;;;;;;;23.38;100.00;100449.47;5009385;28;20502;-75
2023/07/17 00:56:16;;;;;;;3.03;2.03;;;;;;;24.08;100.00;100564.63;5007091;28;20045;-75
2023/07/17 00:58:41;;;;;;;6.55;2.75;;;;;;;23.47;100.00;100466.88;5010526;28;20581;-81
2023/07/17 01:01:07;;;;;;;7.45;2.72;;;;;;;23.84;100.00;100493.56;5012816;28;20045;-77
2023/07/17 01:03:32;;;;;;;21.60;2.88;;;;;;;24.33;100.00;100557.94;5010644;28;20046;-77
2023/07/17 01:05:58;;;;;;;3.15;1.70;;;;;;;24.38;100.00;100577.31;5009192;28;20089;-76
2023/07/17 01:08:23;;;;;;;4.57;1.85;;;;;;;24.06;100.00;100546.88;5009259;28;20339;-76
2023/07/17 01:10:49;;;;;;;2.97;2.08;;;;;;;23.85;100.00;100492.63;5007023;28;20034;-80
2023/07/17 01:13:16;;;;;;;3.38;2.15;;;;;;;23.84;100.00;100491.75;5010394;28;20052;-75
2023/07/17 01:15:42;;;;;;;5.32;2.70;;;;;;;24.31;100.00;100581.28;5011091;28;20120;-81
2023/07/17 01:18:07;;;;;;;5.63;2.08;;;;;;;23.84;100.00;100513.19;5008175;28;20034;-81
2023/07/17 01:20:34;;;;;;;3.25;1.60;;;;;;;24.19;100.00;100577.44;5017510;28;20042;-76
2023/07/17 01:23:02;;;;;;;2.55;1.77;;;;;;;24.12;100.00;100568.00;5014126;28;20069;-79
2023/07/17 01:25:28;;;;;;;4.93;2.75;;;;;;;23.95;100.00;100560.84;5008945;28;20077;-75
2023/07/17 01:27:53;;;;;;;7.93;3.08;;;;;;;23.85;100.00;100543.53;4990977;28;20087;-77
2023/07/17 01:30:19;;;;;;;3.28;2.15;;;;;;;23.92;100.00;100575.28;4991488;28;20026;-81
2023/07/17 01:32:44;;;;;;;3.33;2.35;;;;;;;23.30;100.00;100465.09;5007370;28;20042;-78
2023/07/17 01:35:10;;;;;;;5.68;2.38;;;;;;;22.96;100.00;100490.00;4997222;28;20045;-76
2023/07/17 01:37:35;;;;;;;4.93;3.25;;;;;;;23.23;100.00;100589.53;5008388;28;20073;-78
2023/07/17 01:40:02;;;;;;;5.93;2.95;;;;;;;23.11;100.00;100563.38;4999824;28;20728;-75
2023/07/17 01:42:28;;;;;;;4.05;2.53;;;;;;;23.14;100.00;100571.25;5018130;28;20057;-78
2023/07/17 01:44:53;;;;;;;4.57;2.90;;;;;;;22.96;100.00;100551.56;5013035;28;20072;-77
2023/07/17 01:47:18;;;;;;;3.25;2.03;;;;;;;23.30;100.00;100582.06;5012644;28;20033;-80
2023/07/17 01:49:44;;;;;;;4.45;2.38;;;;;;;22.71;100.00;100493.03;4994159;28;20057;-79
2023/07/17 01:52:10;;;;;;;3.92;3.15;;;;;;;23.13;100.00;100581.09;5015543;28;20486;-79
2023/07/17 01:54:36;;;;;;;4.90;2.88;;;;;;;22.49;100.00;100509.25;5011770;28;20045;-76
2023/07/17 01:57:01;;;;;;;4.10;2.53;;;;;;;22.44;100.00;100519.31;4989633;28;20669;-75
2023/07/17 01:59:26;;;;;;;6.20;3.13;;;;;;;22.58;100.00;100487.44;5011064;28;20501;-81
2023/07/17 02:01:52;;;;;;;5.25;2.28;;;;;;;23.01;100.00;100551.38;5011585;28;20607;-76
2023/07/17 02:04:17;;;;;;;3.15;1.83;;;;;;;22.31;100.00;100497.63;5011201;28;20045;-76
2023/07/17 02:06:43;;;;;;;8.38;2.78;;;;;;;22.60;100.00;100572.94;5012131;28;20033;-76
2023/07/17 02:09:08;;;;;;;3.92;2.92;;;;;;;22.25;100.00;100517.50;5002969;28;20077;-75
2023/07/17 02:11:34;;;;;;;9.48;2.58;;;;;;;22.60;100.00;100595.22;5013453;28;20041;-79
2023/07/17 02:13:59;;;;;;;3.60;2.17;;;;;;;22.17;100.00;100549.03;5007870;28;20068;-75
2023/07/17 02:16:24;;;;;;;2.20;1.75;;;;;;;21.90;100.00;100495.91;5010292;28;20054;-75
2023/07/17 02:18:50;;;;;;;4.45;2.80;;;;;;;22.12;100.00;100554.63;4983369;28;20528;-77
2023/07/17 02:21:15;;;;;;;3.88;3.08;;;;;;;21.89;100.00;100541.41;5007956;28;20206;-76
2023/07/17 02:23:41;;;;;;;3.45;2.35;;;;;;;22.03;100.00;100509.59;5007907;28;20034;-77
2023/07/17 02:26:07;;;;;;;3.78;2.28;;;;;;;22.20;100.00;100601.50;5009083;28;20046;-75
2023/07/17 02:28:33;;;;;;;9.75;1.77;;;;;;;21.63;100.00;100531.88;5011517;28;20048;-77
2023/07/17 02:30:58;;;;;;;4.70;2.45;;;;;;;21.57;100.00;100524.16;5012698;28;20045;-75
2023/07/17 02:33:23;;;;;;;4.00;2.28;;;;;;;21.54;100.00;100509.13;4992080;28;20049;-78
2023/07/17 02:35:49;;;;;;;6.25;2.42;;;;;;;22.08;100.00;100592.25;5008935;28;20136;-78
2023/07/17 02:38:14;;;;;;;8.77;2.50;;;;;;;21.62;100.00;100511.47;5007269;28;20054;-75
2023/07/17 02:40:40;;;;;;;3.45;1.80;;;;;;;21.56;100.00;100539.28;5000650;28;20509;-75
2023/07/17 02:43:07;;;;;;;2.50;1.65;;;;;;;22.24;100.00;100589.75;5013650;28;20046;-76
2023/07/17 02:45:33;;;;;;;4.30;1.85;;;;;;;22.20;100.00;100606.84;5009483;28;20036;-78
2023/07/17 02:47:58;;;;;;;5.57;2.97;;;;;;;21.84;100.00;100528.25;5007629;28;20046;-80
2023/07/17 02:50:24;;;;;;;2.55;1.40;;;;;;;22.50;100.00;100615.28;5014178;28;20038;-80
2023/07/17 02:52:49;;;;;;;5.97;2.60;;;;;;;22.26;100.00;100614.63;4998777;28;20518;-78
2023/07/17 02:55:15;;;;;;;3.42;2.65;;;;;;;22.06;100.00;100591.44;4993775;28;20053;-76
2023/07/17 02:57:41;;;;;;;6.15;2.33;;;;;;;22.05;100.00;100622.63;4986438;28;20500;-76
2023/07/17 03:00:12;;;;;;;4.38;2.58;;;;;;;21.45;100.00;100530.91;5002645;28;20034;-78
2023/07/17 03:02:40;;;;;;;9.25;3.22;;;;;;;21.34;100.00;100531.31;5000895;28;20143;-76
2023/07/17 03:05:08;;;;;;;4.15;1.70;;;;;;;21.65;100.00;100611.00;5002729;28;20125;-77
2023/07/17 03:07:35;;;;;;;3.47;2.13;;;;;;;21.27;100.00;100528.03;5003287;28;20064;-78
2023/07/17 03:10:01;;;;;;;2.25;1.77;;;;;;;21.37;100.00;100544.53;5001224;28;20042;-76
2023/07/17 03:12:26;;;;;;;2.88;1.80;;;;;;;21.73;100.00;100621.38;5005217;28;20536;-77
2023/07/17 03:14:52;;;;;;;3.70;1.92;;;;;;;21.60;100.00;100610.34;5004722;28;20133;-77
2023/07/17 03:17:17;;;;;;;5.72;3.25;;;;;;;21.73;100.00;100599.09;4999982;28;20173;-78
2023/07/17 03:19:42;;;;;;;3.38;2.08;;;;;;;21.28;100.00;100532.47;4999723;28;20649;-79
2023/07/17 03:22:08;;;;;;;4.03;2.95;;;;;;;21.46;100.00;100564.66;5008930;28;20049;-77
2023/07/17 03:24:33;;;;;;;4.25;2.15;;;;;;;21.54;100.00;100637.31;5010065;28;20038;-79
2023/07/17 03:26:59;;;;;;;3.03;2.50;;;;;;;21.28;100.00;100601.84;5004079;28;20042;-76
2023/07/17 03:29:26;;;;;;;4.82;2.47;;;;;;;21.49;100.00;100621.47;4986735;28;20038;-76
2023/07/17 03:31:52;;;;;;;8.40;2.47;;;;;;;21.57;100.00;100633.66;4999148;28;20042;-76
2023/07/17 03:34:18;;;;;;;2.60;1.30;;;;;;;21.55;100.00;100607.00;4999701;28;20042;-77
2023/07/17 03:36:43;;;;;;;2.85;2.05;;;;;;;21.64;100.00;100625.31;5009512;28;20083;-77
2023/07/17 03:39:09;;;;;;;5.00;2.92;;;;;;;21.68;100.00;100623.34;5012970;28;20107;-76
2023/07/17 03:41:34;;;;;;;4.25;3.40;;;;;;;21.34;100.00;100559.81;5007863;28;20053;-77
2023/07/17 03:44:02;;;;;;;3.80;1.75;;;;;;;21.69;100.00;100644.66;5001436;28;20034;-75
2023/07/17 03:46:28;;;;;;;5.20;1.98;;;;;;;21.61;100.00;100605.84;5002801;28;20060;-79
2023/07/17 03:48:53;;;;;;;4.18;2.22;;;;;;;21.73;100.00;100637.41;4999420;28;20034;-82
2023/07/17 03:51:18;;;;;;;3.53;2.35;;;;;;;21.82;100.00;100631.66;5000142;28;21140;-80
2023/07/17 03:53:44;;;;;;;9.23;2.85;;;;;;;22.07;100.00;100654.63;5005752;28;20049;-80
2023/07/17 03:56:10;;;;;;;4.13;2.17;;;;;;;21.69;100.00;100652.69;5000659;28;20363;-75
2023/07/17 03:58:35;;;;;;;5.05;2.28;;;;;;;21.14;100.00;100579.31;4984608;28;20042;-76
2023/07/17 04:01:00;;;;;;;4.53;2.47;;;;;;;21.56;100.00;100651.44;5002617;28;20050;-77
2023/07/17 04:03:26;;;;;;;3.38;2.20;;;;;;;21.71;100.00;100656.16;5003812;28;20438;-79
2023/07/17 04:05:51;;;;;;;4.05;2.17;;;;;;;21.88;100.00;100668.78;5005557;28;20380;-78
2023/07/17 04:08:17;;;;;;;3.33;2.33;;;;;;;22.01;100.00;100665.56;5004908;28;20038;-79
2023/07/17 04:10:42;;;;;;;3.92;2.17;;;;;;;22.14;100.00;100650.75;4998675;28;20141;-81
2023/07/17 04:13:08;;;;;;;5.40;2.65;;;;;;;21.95;100.00;100623.09;5001568;28;20049;-76
2023/07/17 04:15:36;;;;;;;3.03;1.73;;;;;;;22.07;100.00;100650.16;5002909;28;20038;-79
2023/07/17 04:18:02;;;;;;;5.72;2.30;;;;;;;21.67;100.00;100570.88;5003233;28;20057;-80
2023/07/17 04:20:28;;;;;;;3.65;2.28;;;;;;;22.06;100.00;100600.31;4999398;28;20099;-78
2023/07/17 04:22:53;;;;;;;4.03;1.77;;;;;;;21.69;100.00;100526.28;5000705;28;20683;-79
2023/07/17 04:25:18;;;;;;;4.25;2.20;;;;;;;22.40;100.00;100622.88;5006485;28;20478;-83
2023/07/17 04:27:44;;;;;;;3.17;2.03;;;;;;;22.72;100.00;100652.63;5001665;28;20057;-79
2023/07/17 04:30:10;;;;;;;6.63;2.75;;;;;;;22.76;100.00;100646.19;4998494;28;20037;-76
2023/07/17 04:32:36;;;;;;;4.35;2.38;;;;;;;22.43;100.00;100571.94;4996631;28;20050;-75
2023/07/17 04:35:02;;;;;;;3.42;2.08;;;;;;;23.05;100.00;100660.03;5004993;28;20054;-80
2023/07/17 04:37:27;;;;;;;5.10;2.83;;;;;;;22.65;100.00;100570.91;4999368;28;20399;-80
2023/07/17 04:39:53;;;;;;;6.03;3.40;;;;;;;23.26;100.00;100634.03;5003977;28;20130;-86
2023/07/17 04:42:18;;;;;;;4.50;2.58;;;;;;;23.32;100.00;100656.03;4997688;28;20076;-78
2023/07/17 04:44:44;;;;;;;4.03;1.98;;;;;;;23.33;100.00;100632.78;4994769;28;20523;-80
2023/07/17 04:47:10;;;;;;;2.80;1.80;;;;;;;23.64;100.00;100652.66;4981679;28;20038;-78
2023/07/17 04:49:35;;;;;;;5.47;2.60;;;;;;;23.58;100.00;100637.78;4981719;28;20470;-78
2023/07/17 04:52:01;;;;;;;7.13;2.88;;;;;;;23.90;100.00;100651.38;5006080;28;20034;-75
2023/07/17 04:54:27;;;;;;;12.68;2.70;;;;;;;23.40;100.00;100567.25;5001836;28;20065;-76
2023/07/17 04:56:52;;;;;;;3.72;2.38;;;;;;;23.93;100.00;100654.75;5002964;28;20481;-81
2023/07/17 04:59:19;;;;;;;11.30;8.38;;;;;;;24.04;100.00;100646.16;4999484;28;20784;-79
2023/07/17 05:01:44;;;;;;;5.32;2.50;;;;;;;23.95;100.00;100623.41;4995417;28;20058;-78
2023/07/17 05:04:10;;;;;;;4.82;3.33;;;;;;;23.85;100.00;100606.03;4996020;28;20116;-77
2023/07/17 05:06:35;;;;;;;2.50;1.73;;;;;;;24.23;100.00;100672.84;4985648;28;20038;-76
2023/07/17 05:09:01;;;;;;;4.38;2.28;;;;;;;23.92;100.00;100587.81;5006661;28;20050;-77
2023/07/17 05:11:27;;;;;;;4.10;2.58;;;;;;;24.61;100.00;100670.84;5005582;28;20041;-77
2023/07/17 05:13:52;;;;;;;6.38;2.70;;;;;;;24.26;100.00;100586.03;5003771;28;20038;-78
2023/07/17 05:16:18;;;;;;;6.20;3.35;;;;;;;24.91;100.00;100658.50;4990375;28;20127;-80
2023/07/17 05:18:43;;;;;;;4.93;3.22;;;;;;;25.30;100.00;100681.41;5006733;28;20481;-81
2023/07/17 05:21:09;;;;;;;6.68;3.60;;;;;;;24.98;100.00;100665.25;5010380;28;20029;-81
2023/07/17 05:23:34;;;;;;;5.35;2.92;;;;;;;25.09;100.00;100601.06;5012740;28;20103;-78
2023/07/17 05:26:00;;;;;;;4.88;3.13;;;;;;;25.87;100.00;100684.34;5013411;28;20053;-76
2023/07/17 05:28:28;;;;;;;3.92;1.88;;;;;;;26.70;100.00;100690.09;4990646;28;20508;-76
2023/07/17 05:30:54;;;;;;;4.00;2.20;;;;;;;26.22;100.00;100695.72;5008658;28;20111;-80
2023/07/17 05:33:23;;;;;;;4.40;2.20;;;;;;;26.01;100.00;100582.22;5007742;28;20022;-75
2023/07/17 05:35:50;;;;;;;5.30;2.78;;;;;;;27.13;100.00;100625.38;4982800;28;20060;-79
2023/07/17 05:38:15;;;;;;;4.70;2.45;;;;;;;27.28;100.00;100694.47;5008546;28;20041;-77
2023/07/17 05:40:41;;;;;;;2.95;1.80;;;;;;;26.95;100.00;100614.84;5008381;28;20064;-78
2023/07/17 05:43:08;;;;;;;2.85;1.85;;;;;;;27.61;100.00;100681.56;5008319;28;20048;-77
2023/07/17 05:45:34;;;;;;;5.70;2.08;;;;;;;28.17;100.00;100693.03;5009364;28;20038;-84
2023/07/17 05:47:59;;;;;;;3.33;2.17;;;;;;;27.63;100.00;100640.03;5002424;28;20073;-79
2023/07/17 05:50:25;;;;;;;3.08;1.73;;;;;;;27.71;100.00;100696.13;5008296;28;20438;-77
2023/07/17 05:52:51;;;;;;;4.38;1.80;;;;;;;27.72;100.00;100627.75;5009358;28;20437;-76
2023/07/17 05:55:16;;;;;;;3.38;2.42;;;;;;;28.11;100.00;100651.13;5002952;28;20038;-76
2023/07/17 05:57:42;;;;;;;2.78;1.80;;;;;;;27.72;100.00;100627.75;5007421;28;20060;-77
2023/07/17 06:00:11;;;;;;;2.75;1.55;;;;;;;28.08;100.00;100637.00;5007067;28;20084;-76
2023/07/17 06:02:36;;;;;;;4.78;2.08;;;;;;;28.57;100.00;100692.97;5007779;28;20062;-78
2023/07/17 06:05:02;;;;;;;2.05;1.48;;;;;;;28.88;100.00;100710.53;5010097;28;20050;-76
2023/07/17 06:07:29;;;;;;;3.38;1.95;;;;;;;29.07;87.29;100607.41;5008161;28;20061;-80
2023/07/17 06:09:54;;;;;;;3.15;1.95;;;;;;;29.35;85.17;100662.13;5010503;28;20063;-82
2023/07/17 06:12:20;;;;;;;2.60;1.65;;;;;;;28.95;88.32;100641.56;5002110;28;20030;-80
2023/07/17 06:14:45;;;;;;;3.17;1.55;;;;;;;28.57;95.86;100698.38;5008907;28;20073;-78
2023/07/17 06:17:11;;;;;;;14.02;2.25;;;;;;;28.93;96.54;100686.75;5005047;28;20100;-78
2023/07/17 06:19:36;;;;;;;4.35;2.30;;;;;;;29.08;92.56;100678.53;4989619;28;20057;-76
2023/07/17 06:22:02;;;;;;;5.55;3.30;;;;;;;29.84;85.42;100688.19;5007271;28;20084;-78
2023/07/17 06:24:27;;;;;;;2.70;1.92;;;;;;;28.44;89.97;100633.53;5007985;28;20018;-81
2023/07/17 06:26:53;;;;;;;3.55;1.73;;;;;;;28.89;87.54;100697.88;5014064;28;20050;-78
2023/07/17 06:29:18;;;;;;;3.17;2.13;;;;;;;28.72;89.55;100664.00;5006936;28;20054;-80
2023/07/17 06:31:44;;;;;;;3.05;1.45;;;;;;;29.59;89.98;100691.84;5006898;28;20057;-79
2023/07/17 06:34:09;;;;;;;3.00;1.83;;;;;;;29.23;91.40;100691.78;5006878;28;20685;-77
2023/07/17 06:36:35;;;;;;;4.35;2.20;;;;;;;29.13;85.26;100620.47;5006969;28;20389;-80
2023/07/17 06:39:00;;;;;;;3.47;2.45;;;;;;;29.08;85.58;100628.06;5006443;28;20034;-81
2023/07/17 06:41:26;;;;;;;2.10;1.63;;;;;;;29.14;83.18;100624.88;5006537;28;20041;-78
2023/07/17 06:43:51;;;;;;;4.55;2.40;;;;;;;29.95;78.36;100680.09;4983758;28;20042;-76
2023/07/17 06:46:17;;;;;;;2.85;1.52;;;;;;;30.40;76.30;100682.06;5006040;28;20125;-77
2023/07/17 06:48:43;;;;;;;4.82;1.85;;;;;;;30.40;70.71;100690.19;5003597;28;20141;-79
2023/07/17 06:51:08;;;;;;;4.53;2.50;;;;;;;29.73;77.94;100647.56;5010372;28;20026;-75
2023/07/17 06:53:34;;;;;;;2.88;1.95;;;;;;;29.52;82.99;100612.16;5006186;28;20566;-80
2023/07/17 06:56:00;;;;;;;4.40;2.70;;;;;;;30.05;76.98;100623.41;5003163;28;20045;-76
2023/07/17 06:58:27;;;;;;;1.75;1.23;;;;;;;29.59;80.61;100616.97;5008415;28;20057;-77
2023/07/17 07:01:00;;;;;;;3.20;1.77;;;;;;;30.20;75.77;100630.31;5010296;28;20029;-75
2023/07/17 07:03:27;;;;;;;3.88;2.72;;;;;;;29.90;73.95;100611.06;5007404;28;20536;-78
2023/07/17 07:06:00;;;;;;;2.90;1.60;;;;;;;29.31;73.25;100472.22;5003294;28;20038;-79
2023/07/17 07:08:30;;;;;;;4.72;1.85;;;;;;;30.67;72.77;100684.41;4982921;28;20413;-80
2023/07/17 07:10:58;;;;;;;3.75;1.92;;;;;;;30.67;76.81;100671.75;4991004;28;20139;-81
2023/07/17 07:13:25;;;;;;;6.18;2.65;;;;;;;31.13;73.24;100675.28;5001813;28;20556;-78
2023/07/17 07:15:51;;;;;;;4.90;2.17;;;;;;;30.78;74.48;100681.69;4991235;28;20460;-78
2023/07/17 07:18:17;;;;;;;4.30;2.47;;;;;;;30.69;71.69;100618.28;4990210;28;20572;-80
2023/07/17 07:20:44;;;;;;;3.47;2.33;;;;;;;30.36;68.52;100615.59;5001921;28;20050;-77
2023/07/17 07:23:10;;;;;;;3.92;2.33;;;;;;;30.29;72.45;100681.06;5005043;28;20100;-73
2023/07/17 07:25:35;;;;;;;3.22;1.80;;;;;;;30.68;78.67;100667.19;4994036;28;20058;-72
2023/07/17 07:28:01;;;;;;;4.03;2.47;;;;;;;29.92;76.06;100591.03;5006761;28;20076;-72
2023/07/17 07:30:27;;;;;;;5.47;3.08;;;;;;;29.65;74.95;100599.44;4979359;28;20402;-73
2023/07/17 07:32:53;;;;;;;5.15;2.10;;;;;;;30.65;73.06;100643.06;4985343;28;20065;-73
2023/07/17 07:35:18;;;;;;;2.92;1.67;;;;;;;30.25;75.60;100611.00;5006866;28;20133;-72
2023/07/17 07:37:44;;;;;;;4.45;2.55;;;;;;;30.85;76.71;100672.13;5006233;28;20046;-74
2023/07/17 07:40:11;;;;;;;3.97;2.90;;;;;;;30.58;73.71;100604.78;5004651;28;20159;-73
2023/07/17 07:42:40;;;;;;;3.17;2.30;;;;;;;30.96;77.13;100648.72;5002383;28;20125;-72
2023/07/17 07:45:05;;;;;;;3.38;2.42;;;;;;;31.01;73.53;100662.75;5008665;28;20116;-71
2023/07/17 07:47:32;;;;;;;7.32;2.92;;;;;;;30.89;74.30;100651.94;5000719;28;20165;-75
2023/07/17 07:49:59;;;;;;;3.60;2.08;;;;;;;30.70;74.27;100605.63;4994900;28;20081;-75
2023/07/17 07:52:25;;;;;;;6.15;3.22;;;;;;;31.38;72.44;100679.56;5011183;28;20030;-75
2023/07/17 07:54:50;;;;;;;4.40;2.20;;;;;;;31.17;71.66;100603.56;5006486;28;20037;-76
2023/07/17 07:57:16;;;;;;;3.85;2.65;;;;;;;31.47;70.54;100629.13;4986661;28;20041;-76
2023/07/17 07:59:41;;;;;;;4.38;3.30;;;;;;;31.44;69.06;100589.53;5005715;28;20136;-76
2023/07/17 08:02:07;;;;;;;6.78;2.20;;;;;;;31.70;67.37;100657.00;4999222;28;20442;-76
2023/07/17 08:04:33;;;;;;;12.90;3.05;;;;;;;31.20;66.58;100613.28;5003543;28;20050;-77
2023/07/17 08:06:58;;;;;;;5.68;1.98;;;;;;;31.37;70.24;100574.75;5004596;28;20799;-77
2023/07/17 08:09:24;;;;;;;4.38;2.42;;;;;;;32.14;68.63;100669.50;5001530;28;20037;-77
2023/07/17 08:11:52;;;;;;;3.47;2.35;;;;;;;31.93;63.95;100598.88;5002287;28;20046;-76
2023/07/17 08:14:20;;;;;;;4.25;2.33;;;;;;;32.30;62.17;100654.59;4997683;28;20076;-77
2023/07/17 08:16:46;;;;;;;4.00;2.85;;;;;;;31.50;62.17;100599.88;4998947;28;20145;-76
2023/07/17 08:19:12;;;;;;;3.63;2.15;;;;;;;32.12;67.08;100590.03;4990217;28;20692;-77
2023/07/17 08:21:38;;;;;;;11.20;2.67;;;;;;;32.70;65.56;100667.38;5009879;28;20034;-76
2023/07/17 08:24:03;;;;;;;3.22;2.38;;;;;;;32.43;62.45;100638.94;5008315;28;20048;-76
2023/07/17 08:26:29;;;;;;;5.95;2.42;;;;;;;32.35;63.51;100590.69;5009525;28;20042;-76
2023/07/17 08:28:54;;;;;;;4.85;1.85;;;;;;;32.46;60.70;100654.09;5005108;28;20037;-76
2023/07/17 08:31:20;;;;;;;3.92;2.05;;;;;;;32.94;59.84;100626.25;5003649;28;20040;-76
2023/07/17 08:33:46;;;;;;;4.18;3.22;;;;;;;32.82;62.08;100584.72;5005764;28;20044;-77
2023/07/17 08:36:11;;;;;;;6.75;2.78;;;;;;;32.97;59.34;100586.06;5006875;28;20092;-76
2023/07/17 08:38:37;;;;;;;3.30;2.45;;;;;;;33.31;59.13;100612.88;4989163;28;20244;-76
2023/07/17 08:41:03;;;;;;;3.50;2.45;;;;;;;32.97;58.05;100509.94;5006051;28;20045;-77
2023/07/17 08:43:29;;;;;;;4.75;2.55;;;;;;;33.42;57.13;100588.25;5010303;28;20046;-77
2023/07/17 08:45:56;;;;;;;5.25;3.05;;;;;;;33.55;55.64;100636.09;5010806;28;20485;-77
2023/07/17 08:48:22;;;;;;;4.20;2.83;;;;;;;33.68;54.98;100589.56;5008102;28;20033;-77
2023/07/17 08:50:51;;;;;;;8.10;3.08;;;;;;;33.97;53.72;100597.66;5002771;28;20050;-77
2023/07/17 08:53:19;;;;;;;3.15;2.13;;;;;;;33.99;53.57;100576.59;5006924;28;20030;-78
2023/07/17 08:55:46;;;;;;;3.40;2.58;;;;;;;34.42;51.89;100649.63;5008124;28;20073;-76
2023/07/17 08:58:13;;;;;;;3.42;2.33;;;;;;;34.18;51.62;100632.91;5010609;28;20041;-76
2023/07/17 09:00:39;;;;;;;6.32;2.88;;;;;;;34.30;50.28;100579.09;4986371;28;20096;-76
2023/07/17 09:03:04;;;;;;;2.45;2.17;;;;;;;34.81;52.44;100641.28;5011718;28;20454;-76
2023/07/17 09:05:30;;;;;;;2.53;2.05;;;;;;;34.43;49.29;100509.59;5009214;28;20049;-77
2023/07/17 09:07:55;;;;;;;4.07;2.97;;;;;;;35.40;48.88;100641.78;5006701;28;20049;-77
2023/07/17 09:10:23;;;;;;;3.22;2.50;;;;;;;35.13;47.53;100644.56;5008276;28;20125;-77
2023/07/17 09:12:59;;;;;;;4.45;2.22;;;;;;;34.35;48.23;100637.59;5004352;28;20038;-78
2023/07/17 09:15:27;;;;;;;3.38;2.80;;;;;;;34.37;48.53;100563.84;5003482;28;20046;-79
2023/07/17 09:17:53;;;;;;;2.53;1.95;;;;;;;35.07;47.63;100553.25;5003040;28;20052;-79
2023/07/17 09:20:19;;;;;;;5.10;2.90;;;;;;;35.30;46.61;100622.75;5012675;28;20049;-77
2023/07/17 09:22:45;;;;;;;5.30;2.72;;;;;;;35.69;45.40;100567.00;5001141;28;20046;-78
2023/07/17 09:25:12;;;;;;;4.88;2.90;;;;;;;36.17;44.84;100633.91;4998168;28;20060;-79
2023/07/17 09:27:48;;;;;;;2.63;1.95;;;;;;;36.29;45.49;100629.91;4988373;28;20522;-78
2023/07/17 09:30:19;;;;;;;3.03;2.10;;;;;;;36.52;45.33;100607.44;5006698;28;20161;-77
2023/07/17 09:32:46;;;;;;;4.47;3.20;;;;;;;36.29;43.89;100634.50;5006162;28;20530;-79
2023/07/17 09:35:13;;;;;;;2.17;1.70;;;;;;;34.69;44.00;100623.41;5001594;28;20137;-78
2023/07/17 09:37:43;;;;;;;2.75;1.60;;;;;;;35.44;45.48;100588.59;5003021;28;20064;-77
2023/07/17 09:40:14;;;;;;;5.30;3.25;;;;;;;34.57;44.45;100567.34;5003631;28;20076;-78
2023/07/17 09:42:50;;;;;;;4.40;2.78;;;;;;;35.42;44.69;100617.91;5008185;28;20494;-77
2023/07/17 09:45:18;;;;;;;2.83;1.98;;;;;;;36.26;42.99;100621.16;5005645;28;20033;-77
2023/07/17 09:47:45;;;;;;;3.53;2.00;;;;;;;36.25;43.20;100543.78;5005102;28;20058;-79
2023/07/17 09:50:13;;;;;;;3.40;2.40;;;;;;;37.07;42.48;100571.44;4986105;28;20560;-78
2023/07/17 09:52:39;;;;;;;8.52;2.85;;;;;;;36.71;41.12;100547.06;4997678;28;20053;-79
2023/07/17 09:55:05;;;;;;;2.17;1.63;;;;;;;35.75;40.63;100530.81;5008228;28;20053;-79
2023/07/17 09:57:35;;;;;;;2.55;1.55;;;;;;;35.45;40.63;100499.38;4988978;28;20038;-80
2023/07/17 10:00:13;;;;;;;4.45;2.65;;;;;;;35.59;40.81;100583.44;5004771;28;20457;-81
2023/07/17 10:02:43;;;;;;;2.75;1.85;;;;;;;36.76;39.71;100602.13;4999051;28;20058;-80
2023/07/17 10:05:08;;;;;;;3.28;2.55;;;;;;;35.87;40.86;100575.13;4990136;28;20793;-81
2023/07/17 10:07:37;;;;;;;2.40;1.50;;;;;;;35.62;40.44;100478.53;5010375;28;20156;-80
2023/07/17 10:10:05;;;;;;;3.35;2.03;;;;;;;35.48;39.76;100518.19;5007617;28;20042;-80
2023/07/17 10:12:31;;;;;;;3.28;2.13;;;;;;;36.66;41.43;100604.13;5004268;28;20059;-80
2023/07/17 10:14:58;;;;;;;3.88;2.50;;;;;;;36.32;40.89;100522.97;5003330;28;20168;-80
2023/07/17 10:17:32;;;;;;;3.45;2.80;;;;;;;37.61;39.21;100570.97;5004727;28;20053;-80
2023/07/17 10:20:00;;;;;;;4.07;2.33;;;;;;;36.84;40.78;100579.41;5006107;28;20063;-80
2023/07/17 10:22:45;;;;;;;3.20;2.13;;;;;;;36.84;38.88;100507.44;4984712;28;20764;-80
2023/07/17 10:25:19;;;;;;;2.53;1.50;;;;;;;37.33;39.80;100584.97;5005937;28;20054;-80
2023/07/17 10:27:46;;;;;;;4.63;2.97;;;;;;;37.21;39.70;100572.66;5006941;28;20049;-79
2023/07/17 10:30:21;;;;;;;3.15;1.80;;;;;;;38.25;37.78;100572.91;4999396;28;20046;-79
2023/07/17 10:32:46;;;;;;;3.35;1.75;;;;;;;36.23;39.09;100424.72;5004349;28;20149;-79
2023/07/17 10:35:21;;;;;;;3.42;2.40;;;;;;;36.95;38.06;100496.16;5003400;28;20125;-77
2023/07/17 10:37:46;;;;;;;3.45;2.20;;;;;;;37.20;38.42;100513.44;4998051;28;20156;-77
2023/07/17 10:40:28;;;;;;;2.97;1.98;;;;;;;37.02;40.09;100564.72;5006244;28;20159;-77
2023/07/17 10:42:54;;;;;;;6.43;5.33;;;;;;;36.09;40.35;100536.31;5005772;28;20108;-70
2023/07/17 10:45:20;;;;;;;16.55;13.70;;;;;;;36.52;39.63;100560.97;5005203;28;20452;-70
2023/07/17 10:47:49;;;;;;;4.78;2.28;;;;;;;36.25;39.99;100556.59;4999327;28;20056;-72
2023/07/17 10:50:17;;;;;;;3.83;2.92;;;;;;;36.60;39.35;100551.97;5007438;28;20165;-69
2023/07/17 10:52:43;;;;;;;3.47;2.55;;;;;;;36.66;40.02;100552.16;5011673;28;20139;-70
2023/07/17 10:55:08;;;;;;;6.80;5.30;;;;;;;36.19;40.03;100552.63;4983790;28;20092;-73
2023/07/17 10:57:37;;;;;;;8.93;4.13;;;;;;;34.59;41.95;100502.63;5006644;28;20029;-69
2023/07/17 11:00:03;;;;;;;5.30;2.88;;;;;;;35.92;40.19;100532.66;5002479;28;20047;-69
2023/07/17 11:02:28;;;;;;;3.03;2.55;;;;;;;36.33;40.37;100543.81;5009960;28;20124;-71
2023/07/17 11:04:58;;;;;;;6.72;3.28;;;;;;;35.44;40.86;100552.25;5002754;28;20526;-69
2023/07/17 11:07:26;;;;;;;6.13;3.88;;;;;;;34.44;42.42;100475.91;5007421;28;20042;-69
2023/07/17 11:09:52;;;;;;;3.90;2.92;;;;;;;34.00;43.57;100478.41;5007550;28;20065;-70
2023/07/17 11:12:17;;;;;;;7.05;4.32;;;;;;;33.96;44.35;100552.38;5010141;28;20087;-70
2023/07/17 11:14:43;;;;;;;7.20;2.92;;;;;;;34.09;43.81;100478.50;5003334;28;20053;-70
2023/07/17 11:17:12;;;;;;;4.47;2.72;;;;;;;33.50;44.63;100491.44;4987679;28;21753;-69